Time;durP1;ratioP1;P1;durP2;ratioP2;P2;SDS_P1;SDS_P2;PMS_P1;PMS_P2;Temp;Humidity;BMP_temperature;BMP_pressure;BME280_temperature;BME280_humidity;BME280_pressure;Samples;Min_cycle;Max_cycle;Signal;HPM_P1;HPM_P2
2022/09/05 00:01:30;;;;;;;5.40;2.20;;;18.20;40.20;;;;;;5035160;28;20060;-26
2022/09/05 00:04:05;;;;;;;4.70;2.30;;;18.20;41.20;;;;;;5034503;28;20132;-26
2022/09/05 00:06:38;;;;;;;5.00;2.35;;;18.20;33.70;;;;;;5035067;28;20742;-26
2022/09/05 00:09:08;;;;;;;;;;;18.20;71.20;;;;;;5035466;28;20128;-26
2022/09/05 00:11:47;;;;;;;4.50;2.22;;;18.10;99.90;;;;;;5035006;28;19967;-27
2022/09/05 00:14:50;;;;;;;3.72;2.45;;;18.10;33.60;;;;;;5035004;28;20111;-26
2022/09/05 00:17:33;;;;;;;5.28;2.38;;;18.10;95.60;;;;;;5035481;28;20052;-27
2022/09/05 00:20:16;;;;;;;4.20;2.20;;;18.10;55.50;;;;;;5034751;28;20052;-26
2022/09/05 00:23:11;;;;;;;4.78;2.10;;;18.20;38.00;;;;;;5035505;28;20091;-26
2022/09/05 00:25:48;;;;;;;4.15;2.15;;;18.10;43.40;;;;;;5029832;28;20046;-26
2022/09/05 00:28:28;;;;;;;6.15;2.40;;;18.10;38.30;;;;;;5035251;28;20137;-27
2022/09/05 00:31:14;;;;;;;7.82;2.10;;;18.10;56.30;;;;;;5035206;28;20045;-26
2022/09/05 00:34:01;;;;;;;4.30;2.08;;;18.10;57.20;;;;;;5034860;28;20103;-26
2022/09/05 00:36:54;;;;;;;5.85;2.90;;;18.10;71.70;;;;;;5034878;28;20053;-26
2022/09/05 00:39:33;;;;;;;10.05;2.75;;;18.20;75.50;;;;;;5034536;28;20064;-26
2022/09/05 00:42:05;;;;;;;2.97;2.30;;;18.20;43.50;;;;;;5034850;28;20405;-26
2022/09/05 00:44:34;;;;;;;3.42;2.55;;;18.20;22.00;;;;;;5034430;28;20054;-26
2022/09/05 00:47:13;;;;;;;3.92;2.85;;;18.10;21.40;;;;;;5033697;28;20115;-26
2022/09/05 00:49:48;;;;;;;5.80;2.72;;;18.10;48.90;;;;;;5034892;28;20411;-26
2022/09/05 00:52:39;;;;;;;3.55;2.08;;;18.10;45.50;;;;;;5033977;28;20045;-26
2022/09/05 00:55:36;;;;;;;4.18;2.50;;;18.10;96.90;;;;;;5034736;28;20171;-26
2022/09/05 00:58:13;;;;;;;6.43;2.63;;;18.00;74.60;;;;;;5023628;28;20064;-26
2022/09/05 01:00:52;;;;;;;4.43;2.28;;;18.00;80.60;;;;;;5033050;28;20096;-26
2022/09/05 01:03:42;;;;;;;5.32;3.05;;;17.90;99.90;;;;;;5033673;28;20076;-26
2022/09/05 01:06:33;;;;;;;5.65;2.40;;;17.90;99.90;;;;;;5034609;28;20049;-27
2022/09/05 01:09:17;;;;;;;7.40;2.60;;;17.80;99.90;;;;;;5032863;28;20056;-27
2022/09/05 01:12:00;;;;;;;3.47;2.83;;;17.80;99.90;;;;;;5033931;28;20045;-26
2022/09/05 01:15:02;;;;;;;3.27;2.60;;;17.80;99.90;;;;;;5034069;28;20049;-26
2022/09/05 01:17:33;;;;;;;3.50;2.30;;;17.70;99.90;;;;;;5034738;28;20331;-26
2022/09/05 01:20:27;;;;;;;3.00;2.47;;;17.60;99.90;;;;;;5032862;28;20103;-27
2022/09/05 01:23:19;;;;;;;4.35;2.72;;;17.60;99.90;;;;;;5034389;28;20056;-27
2022/09/05 01:26:02;;;;;;;4.45;2.70;;;17.50;99.90;;;;;;5034619;28;20048;-26
2022/09/05 01:28:45;;;;;;;6.10;2.95;;;17.60;99.90;;;;;;5033802;28;20050;-26
2022/09/05 01:31:14;;;;;;;7.65;3.10;;;17.50;99.90;;;;;;5034315;28;20045;-27
2022/09/05 01:34:01;;;;;;;5.78;2.88;;;17.50;99.90;;;;;;5032481;28;20080;-26
2022/09/05 01:37:09;;;;;;;4.50;2.58;;;17.50;99.90;;;;;;5032299;28;20049;-26
2022/09/05 01:39:51;;;;;;;7.45;2.67;;;17.40;99.90;;;;;;5033955;28;20049;-26
2022/09/05 01:42:54;;;;;;;7.93;3.47;;;17.40;99.90;;;;;;5033497;28;20176;-26
2022/09/05 01:46:05;;;;;;;3.58;2.70;;;17.40;99.90;;;;;;5033838;28;20280;-26
2022/09/05 01:48:34;;;;;;;5.28;3.20;;;17.40;99.90;;;;;;5011523;28;20401;-27
2022/09/05 01:51:18;;;;;;;5.05;3.22;;;17.40;99.90;;;;;;5011399;28;20046;-29
2022/09/05 01:54:04;;;;;;;9.63;3.40;;;17.40;99.90;;;;;;5025226;28;20057;-27
2022/09/05 01:56:55;;;;;;;8.45;3.17;;;17.40;99.90;;;;;;5033493;28;20103;-26
2022/09/05 01:59:54;;;;;;;8.10;3.17;;;17.40;99.90;;;;;;5034356;28;20067;-26
2022/09/05 02:02:52;;;;;;;4.10;2.70;;;17.40;99.90;;;;;;5033390;28;20045;-26
2022/09/05 02:05:50;;;;;;;6.20;3.75;;;17.40;99.90;;;;;;5033288;28;20049;-26
2022/09/05 02:08:16;;;;;;;5.07;2.97;;;17.30;99.90;;;;;;5033385;28;20049;-27
2022/09/05 02:10:53;;;;;;;6.80;3.38;;;17.30;99.90;;;;;;5032369;28;20057;-26
2022/09/05 02:13:34;;;;;;;5.72;2.95;;;17.20;99.90;;;;;;5032374;28;20049;-26
2022/09/05 02:16:02;;;;;;;4.95;2.80;;;17.20;99.90;;;;;;5034342;28;20048;-26
2022/09/05 02:18:52;;;;;;;7.18;3.50;;;17.20;99.90;;;;;;5036694;28;20056;-26
2022/09/05 02:21:32;;;;;;;9.65;3.20;;;17.20;99.90;;;;;;5037674;28;20123;-27
2022/09/05 02:24:31;;;;;;;6.65;3.22;;;17.10;99.90;;;;;;5037356;28;20045;-26
2022/09/05 02:27:09;;;;;;;5.75;3.53;;;17.10;99.90;;;;;;5036987;28;20052;-26
2022/09/05 02:29:59;;;;;;;7.95;3.40;;;17.10;99.90;;;;;;5036523;28;20518;-27
2022/09/05 02:32:44;;;;;;;6.85;3.63;;;17.10;99.90;;;;;;5036253;28;20057;-26
2022/09/05 02:35:09;;;;;;;7.53;2.90;;;17.00;99.90;;;;;;5036529;28;20053;-26
2022/09/05 02:37:41;;;;;;;6.32;3.60;;;17.00;99.90;;;;;;5036755;28;20056;-26
2022/09/05 02:40:18;;;;;;;5.82;3.30;;;17.00;99.90;;;;;;5036717;28;20464;-26
2022/09/05 02:42:57;;;;;;;5.15;4.00;;;17.00;99.90;;;;;;5037174;28;20120;-26
2022/09/05 02:45:31;;;;;;;5.03;3.28;;;17.00;99.90;;;;;;5035429;28;20124;-26
2022/09/05 02:48:24;;;;;;;6.82;4.10;;;16.90;99.90;;;;;;5036870;28;20511;-26
2022/09/05 02:50:58;;;;;;;6.32;3.65;;;16.90;99.90;;;;;;5036279;28;20423;-26
2022/09/05 02:53:25;;;;;;;5.60;3.72;;;16.80;99.90;;;;;;5036531;28;20088;-26
2022/09/05 02:56:16;;;;;;;5.75;3.83;;;16.70;99.90;;;;;;5036732;28;20095;-26
2022/09/05 02:58:53;;;;;;;8.77;4.22;;;16.70;99.90;;;;;;5037048;28;20050;-26
2022/09/05 03:01:40;;;;;;;6.30;3.97;;;16.70;99.90;;;;;;5036882;28;20123;-27
2022/09/05 03:04:27;;;;;;;5.70;3.80;;;16.60;99.90;;;;;;5036568;28;20120;-26
2022/09/05 03:07:01;;;;;;;8.00;3.83;;;16.60;1.00;;;;;;5036837;28;20085;-26
2022/09/05 03:09:44;;;;;;;7.18;4.30;;;16.60;99.90;;;;;;5036553;28;20067;-26
2022/09/05 03:12:38;;;;;;;9.27;4.28;;;16.50;99.90;;;;;;5036461;28;20041;-26
2022/09/05 03:15:22;;;;;;;5.65;3.53;;;16.50;1.00;;;;;;5036687;28;20045;-26
2022/09/05 03:18:09;;;;;;;6.63;4.10;;;16.40;1.00;;;;;;5036069;28;20053;-27
2022/09/05 03:20:44;;;;;;;8.57;4.03;;;16.40;1.00;;;;;;5036301;28;20115;-26
2022/09/05 03:23:37;;;;;;;6.40;4.03;;;16.40;1.00;;;;;;5036168;28;20045;-26
2022/09/05 03:26:33;;;;;;;7.03;4.40;;;16.40;1.00;;;;;;5035911;28;20053;-26
2022/09/05 03:28:59;;;;;;;6.35;4.13;;;16.30;1.00;;;;;;5035960;28;20415;-26
2022/09/05 03:31:37;;;;;;;6.13;4.40;;;16.20;1.00;;;;;;5036064;28;20041;-26
2022/09/05 03:34:43;;;;;;;9.40;4.03;;;16.20;1.00;;;;;;5035772;28;20050;-26
2022/09/05 03:37:30;;;;;;;8.60;4.47;;;16.10;1.00;;;;;;5035924;28;20107;-26
2022/09/05 03:40:19;;;;;;;6.32;4.55;;;16.10;1.00;;;;;;5034457;28;20088;-26
2022/09/05 03:43:01;;;;;;;5.47;4.38;;;16.00;1.00;;;;;;5035461;28;20041;-26
2022/09/05 03:45:29;;;;;;;6.72;4.25;;;15.90;1.00;;;;;;5035842;28;20107;-27
2022/09/05 03:48:40;;;;;;;6.70;4.28;;;15.90;1.00;;;;;;5035161;28;20385;-26
2022/09/05 03:51:09;;;;;;;7.90;4.32;;;15.80;1.00;;;;;;5035832;28;20053;-26
2022/09/05 03:53:59;;;;;;;8.35;4.15;;;15.80;1.00;;;;;;5035321;28;20053;-26
2022/09/05 03:57:09;;;;;;;5.50;4.40;;;15.70;1.00;;;;;;5035270;28;20476;-26
2022/09/05 03:59:45;;;;;;;5.75;4.20;;;15.70;1.00;;;;;;5025120;28;20057;-26
2022/09/05 04:02:16;;;;;;;5.38;4.07;;;15.60;1.00;;;;;;5035140;28;20037;-26
2022/09/05 04:04:41;;;;;;;6.53;4.82;;;15.70;3.70;;;;;;5035773;28;20458;-26
2022/09/05 04:07:29;;;;;;;8.77;5.00;;;15.60;28.80;;;;;;5034108;28;20076;-26
2022/09/05 04:10:17;;;;;;;6.13;4.97;;;15.50;28.30;;;;;;5035020;28;20164;-26
2022/09/05 04:12:58;;;;;;;7.10;4.70;;;15.60;53.30;;;;;;5035287;28;20132;-26
2022/09/05 04:15:42;;;;;;;7.22;4.75;;;15.50;84.40;;;;;;5035547;28;20055;-26
2022/09/05 04:18:16;;;;;;;11.35;4.85;;;15.50;89.00;;;;;;5034969;28;20085;-26
2022/09/05 04:20:55;;;;;;;6.38;4.28;;;15.40;94.70;;;;;;5034843;28;20484;-28
2022/09/05 04:23:33;;;;;;;9.38;5.45;;;15.40;99.90;;;;;;5035005;28;20042;-26
2022/09/05 04:26:19;;;;;;;8.90;5.25;;;15.40;99.90;;;;;;5035380;28;20053;-26
2022/09/05 04:29:20;;;;;;;7.70;5.07;;;15.30;99.90;;;;;;5034619;28;20058;-26
2022/09/05 04:32:00;;;;;;;8.27;5.13;;;15.30;99.90;;;;;;5025287;28;20054;-26
2022/09/05 04:34:44;;;;;;;8.30;5.03;;;15.30;99.90;;;;;;5034772;28;20059;-26
2022/09/05 04:37:28;;;;;;;8.40;5.40;;;15.30;99.90;;;;;;5033911;28;20053;-26
2022/09/05 04:39:54;;;;;;;7.55;4.70;;;15.30;99.90;;;;;;5033499;28;20403;-26
2022/09/05 04:42:23;;;;;;;7.25;5.38;;;15.20;99.90;;;;;;5034277;28;20041;-26
2022/09/05 04:44:55;;;;;;;10.10;5.10;;;15.20;99.90;;;;;;5034388;28;20184;-26
2022/09/05 04:47:34;;;;;;;10.23;4.90;;;15.20;99.90;;;;;;5034953;28;20045;-26
2022/09/05 04:50:22;;;;;;;8.63;5.47;;;15.20;99.90;;;;;;5035167;28;20068;-26
2022/09/05 04:53:05;;;;;;;6.60;5.22;;;15.20;99.90;;;;;;5034884;28;20144;-26
2022/09/05 04:55:42;;;;;;;;;;;15.20;99.90;;;;;;5034654;28;20049;-26
2022/09/05 04:58:37;;;;;;;7.63;5.32;;;15.20;99.90;;;;;;5034250;28;19928;-27
2022/09/05 05:01:11;;;;;;;8.27;4.82;;;15.10;99.90;;;;;;5034653;28;20048;-26
2022/09/05 05:03:37;;;;;;;9.73;5.05;;;15.20;99.90;;;;;;5034884;28;20049;-27
2022/09/05 05:06:26;;;;;;;8.02;5.68;;;15.20;99.90;;;;;;5034011;28;20132;-26
2022/09/05 05:08:59;;;;;;;8.13;5.60;;;15.20;99.90;;;;;;5034014;28;20052;-26
2022/09/05 05:11:37;;;;;;;;;;;15.30;99.90;;;;;;5034434;28;20050;-26
2022/09/05 05:14:23;;;;;;;7.78;4.95;;;15.30;99.90;;;;;;5032807;28;20378;-26
2022/09/05 05:16:59;;;;;;;7.90;4.85;;;15.30;99.90;;;;;;5033931;28;20060;-27
2022/09/05 05:19:37;;;;;;;8.73;5.55;;;15.40;99.90;;;;;;5033966;28;20046;-26
2022/09/05 05:22:04;;;;;;;10.52;5.00;;;15.40;99.90;;;;;;5032637;28;20055;-26
2022/09/05 05:24:34;;;;;;;9.18;5.13;;;15.40;99.90;;;;;;5032798;28;20459;-26
2022/09/05 05:27:14;;;;;;;8.15;5.10;;;15.40;99.90;;;;;;5033609;28;20045;-26
2022/09/05 05:29:58;;;;;;;9.75;4.88;;;15.40;99.90;;;;;;5033799;28;20045;-27
2022/09/05 05:32:36;;;;;;;8.52;5.30;;;15.40;99.90;;;;;;5033656;28;20484;-26
2022/09/05 05:35:08;;;;;;;8.65;5.55;;;15.40;99.90;;;;;;5032300;28;20060;-26
2022/09/05 05:37:39;;;;;;;10.63;5.45;;;15.50;99.90;;;;;;5033147;28;20063;-26
2022/09/05 05:40:27;;;;;;;9.18;4.90;;;15.50;99.90;;;;;;5033657;28;20045;-26
2022/09/05 05:43:11;;;;;;;10.05;5.10;;;15.50;99.90;;;;;;5033459;28;20045;-26
2022/09/05 05:45:37;;;;;;;9.00;5.15;;;15.60;99.90;;;;;;5033621;28;20045;-26
2022/09/05 05:48:06;;;;;;;8.45;5.25;;;15.60;99.90;;;;;;5032325;28;20377;-26
2022/09/05 05:51:05;;;;;;;7.28;5.18;;;15.70;99.90;;;;;;5033964;28;20057;-26
2022/09/05 05:53:57;;;;;;;11.02;4.90;;;15.80;99.90;;;;;;5038259;28;20053;-26
2022/09/05 05:56:56;;;;;;;11.63;5.43;;;15.90;99.90;;;;;;5037530;28;20096;-26
2022/09/05 05:59:34;;;;;;;9.05;5.30;;;16.00;99.90;;;;;;5037491;28;20053;-26
2022/09/05 06:02:21;;;;;;;5.45;4.90;;;16.10;99.90;;;;;;5037371;28;20492;-26
2022/09/05 06:05:12;;;;;;;10.63;4.72;;;16.20;99.90;;;;;;5037450;28;20049;-26
2022/09/05 06:07:51;;;;;;;8.55;5.20;;;16.30;99.90;;;;;;5037383;28;20046;-26
2022/09/05 06:10:35;;;;;;;6.68;4.93;;;16.30;99.90;;;;;;5036381;28;20403;-26
2022/09/05 06:13:42;;;;;;;8.25;5.28;;;16.40;99.90;;;;;;5037472;28;20508;-26
2022/09/05 06:16:49;;;;;;;6.80;4.75;;;16.50;99.90;;;;;;5037034;28;20102;-26
2022/09/05 06:19:42;;;;;;;10.52;4.90;;;16.60;99.90;;;;;;5038024;28;20050;-26
2022/09/05 06:22:25;;;;;;;10.25;4.68;;;16.80;99.90;;;;;;5037360;28;20132;-26
2022/09/05 06:24:59;;;;;;;9.70;4.97;;;16.90;99.90;;;;;;5037093;28;20556;-26
2022/09/05 06:27:44;;;;;;;6.30;5.20;;;17.00;91.60;;;;;;5037269;28;20049;-26
2022/09/05 06:30:18;;;;;;;6.22;4.80;;;17.10;64.50;;;;;;5036971;28;20060;-26
2022/09/05 06:33:08;;;;;;;5.45;4.50;;;17.30;30.10;;;;;;5036925;28;20437;-27
2022/09/05 06:35:41;;;;;;;9.27;4.90;;;17.40;4.50;;;;;;5037306;28;20061;-27
2022/09/05 06:38:51;;;;;;;7.68;4.60;;;17.50;1.00;;;;;;5036171;28;20132;-26
2022/09/05 06:41:39;;;;;;;8.80;4.68;;;17.70;1.00;;;;;;5037283;28;20060;-26
2022/09/05 06:44:34;;;;;;;7.05;5.15;;;17.80;1.00;;;;;;5036670;28;20103;-26
2022/09/05 06:47:05;;;;;;;5.95;4.13;;;18.00;1.00;;;;;;5037150;28;20139;-26
2022/09/05 06:50:04;;;;;;;7.05;4.70;;;18.10;1.00;;;;;;5037419;28;20056;-27
2022/09/05 06:53:03;;;;;;;5.25;4.35;;;18.20;1.00;;;;;;5036573;28;20522;-26
2022/09/05 06:55:32;;;;;;;8.35;4.53;;;18.40;1.00;;;;;;5036362;28;20492;-26
2022/09/05 06:58:03;;;;;;;8.98;4.18;;;18.50;1.00;;;;;;5036406;28;20041;-26
2022/09/05 07:00:51;;;;;;;7.45;3.97;;;18.70;1.00;;;;;;5036366;28;20488;-26
2022/09/05 07:03:45;;;;;;;5.20;4.53;;;18.80;99.90;;;;;;5036058;28;20168;-26
2022/09/05 07:06:33;;;;;;;9.38;4.70;;;18.90;99.90;;;;;;5036374;28;20128;-26
2022/09/05 07:09:25;;;;;;;7.72;4.45;;;19.10;99.90;;;;;;5036192;28;20064;-26
2022/09/05 07:12:05;;;;;;;10.23;4.97;;;19.20;99.90;;;;;;5036204;28;20049;-26
2022/09/05 07:14:39;;;;;;;7.57;4.57;;;19.30;99.90;;;;;;5035168;28;20491;-26
2022/09/05 07:17:15;;;;;;;6.85;4.68;;;19.40;99.90;;;;;;5035805;28;20397;-26
2022/09/05 07:19:54;;;;;;;6.38;4.10;;;19.50;99.90;;;;;;5035511;28;20056;-27
2022/09/05 07:22:34;;;;;;;10.98;4.68;;;19.60;99.90;;;;;;5036484;28;20179;-26
2022/09/05 07:25:05;;;;;;;8.80;4.93;;;19.70;99.90;;;;;;5035954;28;20045;-26
2022/09/05 07:27:42;;;;;;;6.72;4.65;;;19.70;99.90;;;;;;5035963;28;20068;-26
2022/09/05 07:30:09;;;;;;;9.77;4.80;;;19.90;99.90;;;;;;5036430;28;20083;-26
2022/09/05 07:32:43;;;;;;;7.25;4.60;;;19.90;99.90;;;;;;5036053;28;20095;-26
2022/09/05 07:35:29;;;;;;;6.47;4.47;;;20.00;97.40;;;;;;5035703;28;20057;-26
2022/09/05 07:38:12;;;;;;;8.43;4.65;;;20.10;99.90;;;;;;5036259;28;20057;-28
2022/09/05 07:40:50;;;;;;;5.45;4.32;;;20.20;77.50;;;;;;5035151;28;20049;-26
2022/09/05 07:43:25;;;;;;;7.00;4.55;;;20.40;97.80;;;;;;5035737;28;20049;-27
2022/09/05 07:46:31;;;;;;;8.55;4.40;;;20.50;44.40;;;;;;5035842;28;20045;-27
2022/09/05 07:48:59;;;;;;;7.00;4.60;;;20.50;1.00;;;;;;5013381;28;20050;-26
2022/09/05 07:51:28;;;;;;;6.82;4.30;;;20.60;55.00;;;;;;5013301;28;20042;-26
2022/09/05 07:54:09;;;;;;;5.80;4.57;;;20.70;4.20;;;;;;5024596;28;20061;-26
2022/09/05 07:56:49;;;;;;;10.27;4.57;;;20.80;1.00;;;;;;5035995;28;20468;-26
2022/09/05 07:59:16;;;;;;;7.88;4.28;;;20.90;1.00;;;;;;5035008;28;20049;-26
2022/09/05 08:01:47;;;;;;;6.65;3.90;;;21.00;1.00;;;;;;5035131;28;20045;-26
2022/09/05 08:04:34;;;;;;;8.32;4.35;;;21.20;1.00;;;;;;5035736;28;20068;-27
2022/09/05 08:07:30;;;;;;;5.45;4.25;;;21.40;99.90;;;;;;5034552;28;20063;-27
2022/09/05 08:10:01;;;;;;;6.55;4.30;;;21.50;99.90;;;;;;5035412;28;20127;-28
2022/09/05 08:12:40;;;;;;;7.50;4.10;;;21.70;99.90;;;;;;5035075;28;20038;-26
2022/09/05 08:15:22;;;;;;;7.63;4.70;;;21.90;99.90;;;;;;5032685;28;20142;-26
2022/09/05 08:18:14;;;;;;;6.63;3.83;;;22.10;99.90;;;;;;5035260;28;20041;-27
2022/09/05 08:20:54;;;;;;;6.95;4.22;;;22.10;99.90;;;;;;5026479;28;20064;-27
2022/09/05 08:23:35;;;;;;;4.80;3.97;;;22.10;99.90;;;;;;5035608;28;20055;-26
2022/09/05 08:26:12;;;;;;;7.18;4.18;;;22.20;99.90;;;;;;5035630;28;20372;-26
2022/09/05 08:28:41;;;;;;;6.72;3.60;;;22.40;99.90;;;;;;5034717;28;20446;-27
2022/09/05 08:31:13;;;;;;;6.97;3.95;;;22.50;99.90;;;;;;5034358;28;20049;-26
2022/09/05 08:33:40;;;;;;;8.95;4.07;;;22.60;21.80;;;;;;5034680;28;20140;-27
2022/09/05 08:36:21;;;;;;;6.35;3.65;;;22.60;93.60;;;;;;5035005;28;20053;-27
2022/09/05 08:38:48;;;;;;;7.63;3.95;;;22.80;99.90;;;;;;5035131;28;20107;-27
2022/09/05 08:41:24;;;;;;;10.23;4.45;;;22.90;53.80;;;;;;5034684;28;20060;-27
2022/09/05 08:44:13;;;;;;;9.65;4.32;;;23.00;23.80;;;;;;5034565;28;20072;-27
2022/09/05 08:46:49;;;;;;;8.90;3.63;;;23.00;1.00;;;;;;5034419;28;20046;-27
2022/09/05 08:49:34;;;;;;;5.93;4.13;;;23.10;1.00;;;;;;5034343;28;20052;-27
2022/09/05 08:52:03;;;;;;;8.73;4.03;;;23.20;1.00;;;;;;5034875;28;20049;-27
2022/09/05 08:54:29;;;;;;;11.15;4.00;;;23.30;1.00;;;;;;5033876;28;20490;-27
2022/09/05 08:57:32;;;;;;;7.03;3.72;;;23.60;1.00;;;;;;5034148;28;20091;-27
2022/09/05 09:00:07;;;;;;;7.80;4.05;;;23.80;1.00;;;;;;5034157;28;20488;-27
2022/09/05 09:03:20;;;;;;;8.93;3.78;;;24.00;99.90;;;;;;5034391;28;20045;-27
2022/09/05 09:06:04;;;;;;;8.68;4.07;;;24.20;99.90;;;;;;5029301;28;20585;-27
2022/09/05 09:08:45;;;;;;;8.27;4.30;;;24.50;99.90;;;;;;5034353;28;20049;-27
2022/09/05 09:11:37;;;;;;;5.70;3.45;;;25.40;99.90;;;;;;5034017;28;20080;-27
2022/09/05 09:14:45;;;;;;;8.13;3.38;;;26.60;1.00;;;;;;5033679;28;20416;-27
2022/09/05 09:17:25;;;;;;;8.40;3.38;;;27.50;99.90;;;;;;5031325;28;20068;-27
2022/09/05 09:20:25;;;;;;;6.10;3.20;;;28.00;99.90;;;;;;5033921;28;20088;-27
2022/09/05 09:23:02;;;;;;;7.70;3.25;;;28.50;99.90;;;;;;5033492;28;20488;-27
2022/09/05 09:25:28;;;;;;;6.53;2.88;;;28.70;76.40;;;;;;5032888;28;20049;-27
2022/09/05 09:28:13;;;;;;;7.22;3.20;;;28.90;99.90;;;;;;5033782;28;20049;-27
2022/09/05 09:30:42;;;;;;;6.47;2.78;;;29.10;83.60;;;;;;5033789;28;20052;-27
2022/09/05 09:33:15;;;;;;;6.80;2.75;;;29.30;99.90;;;;;;5033738;28;20037;-27
2022/09/05 09:35:47;;;;;;;12.07;3.10;;;29.40;99.90;;;;;;5033234;28;20534;-27
2022/09/05 09:38:49;;;;;;;8.88;2.80;;;29.70;99.90;;;;;;5033931;28;20075;-28
2022/09/05 09:41:23;;;;;;;10.48;2.42;;;30.20;99.90;;;;;;5033940;28;20068;-28
2022/09/05 09:44:44;;;;;;;9.43;2.80;;;30.30;99.90;;;;;;5032167;28;20451;-27
2022/09/05 09:47:15;;;;;;;5.60;2.38;;;30.40;99.90;;;;;;5012379;28;20124;-27
2022/09/05 09:50:04;;;;;;;3.58;2.45;;;30.60;99.90;;;;;;5033661;28;20050;-27
2022/09/05 09:53:02;;;;;;;3.70;2.35;;;30.80;99.90;;;;;;5032611;28;20139;-27
2022/09/05 09:56:21;;;;;;;5.22;2.70;;;31.00;99.90;;;;;;5033521;28;20561;-27
2022/09/05 09:58:56;;;;;;;4.38;2.60;;;31.20;99.90;;;;;;5011411;28;20555;-27
2022/09/05 10:01:51;;;;;;;2.90;2.30;;;31.60;99.90;;;;;;5032688;28;20095;-28
2022/09/05 10:04:23;;;;;;;7.00;2.50;;;31.80;99.90;;;;;;5033529;28;20049;-27
2022/09/05 10:06:58;;;;;;;6.90;2.20;;;31.90;1.00;;;;;;5033463;28;20154;-28
2022/09/05 10:09:34;;;;;;;9.93;2.40;;;32.10;1.00;;;;;;5033768;28;20494;-28
2022/09/05 10:12:30;;;;;;;4.57;2.40;;;32.10;1.00;;;;;;5034239;28;20042;-28
2022/09/05 10:15:25;;;;;;;7.05;2.15;;;32.10;11.30;;;;;;5032099;28;20052;-27
2022/09/05 10:18:13;;;;;;;9.77;2.42;;;32.00;52.30;;;;;;5033349;28;20049;-27
2022/09/05 10:20:45;;;;;;;6.53;2.25;;;32.00;17.40;;;;;;5033896;28;20129;-28
2022/09/05 10:23:44;;;;;;;3.75;1.73;;;32.10;98.40;;;;;;5033999;28;20379;-28
2022/09/05 10:26:24;;;;;;;7.38;2.00;;;32.10;99.30;;;;;;5033763;28;20053;-27
2022/09/05 10:29:10;;;;;;;4.07;2.08;;;32.20;99.90;;;;;;5033224;28;20407;-28
2022/09/05 10:31:57;;;;;;;7.15;3.00;;;32.50;99.90;;;;;;5033192;28;20041;-28
2022/09/05 10:34:28;;;;;;;4.38;1.73;;;32.80;99.90;;;;;;5033566;28;20050;-27
2022/09/05 10:37:01;;;;;;;;;;;33.10;99.90;;;;;;5034200;28;20053;-28
2022/09/05 10:39:34;;;;;;;6.80;1.80;;;33.10;99.90;;;;;;5037444;28;19975;-28
2022/09/05 10:42:17;;;;;;;3.55;1.50;;;33.20;99.90;;;;;;5036641;28;20498;-28
2022/09/05 10:44:54;;;;;;;5.45;2.28;;;33.40;99.90;;;;;;5035773;28;20506;-27
2022/09/05 10:48:00;;;;;;;2.88;1.55;;;33.80;99.90;;;;;;5036673;28;20041;-28
2022/09/05 10:50:31;;;;;;;2.58;1.30;;;34.00;99.90;;;;;;5034922;28;20057;-28
2022/09/05 10:53:24;;;;;;;7.97;1.40;;;34.00;99.90;;;;;;5036685;28;20049;-28
2022/09/05 10:56:08;;;;;;;3.97;1.40;;;34.30;99.90;;;;;;5036210;28;20446;-29
2022/09/05 10:59:03;;;;;;;2.00;1.35;;;34.50;99.90;;;;;;5037298;28;20049;-28
2022/09/05 11:01:53;;;;;;;4.40;1.52;;;34.40;99.90;;;;;;5036399;28;20049;-29
2022/09/05 11:04:48;;;;;;;2.95;1.35;;;34.50;99.90;;;;;;5036216;28;20049;-28
2022/09/05 11:07:23;;;;;;;4.65;1.38;;;34.50;99.90;;;;;;5036625;28;20090;-28
2022/09/05 11:10:03;;;;;;;5.30;1.50;;;34.40;99.90;;;;;;5036875;28;20084;-28
2022/09/05 11:12:34;;;;;;;6.03;1.67;;;34.60;99.90;;;;;;5036530;28;20430;-28
2022/09/05 11:15:05;;;;;;;4.47;1.45;;;34.60;99.90;;;;;;5036166;28;20052;-27
2022/09/05 11:17:48;;;;;;;3.50;1.07;;;34.50;99.90;;;;;;5036120;28;20100;-28
2022/09/05 11:20:32;;;;;;;3.50;1.20;;;34.50;99.90;;;;;;5036872;28;20132;-28
2022/09/05 11:23:21;;;;;;;7.35;1.80;;;34.10;99.90;;;;;;5035916;28;20368;-29
2022/09/05 11:25:59;;;;;;;6.68;1.40;;;33.80;99.90;;;;;;5035568;28;20519;-28
2022/09/05 11:28:53;;;;;;;2.55;1.60;;;34.10;99.90;;;;;;5036519;28;20072;-27
2022/09/05 11:31:22;;;;;;;2.97;1.33;;;34.30;99.90;;;;;;5035923;28;20046;-27
2022/09/05 11:34:24;;;;;;;5.95;1.30;;;34.60;99.90;;;;;;5035357;28;20428;-28
2022/09/05 11:36:54;;;;;;;5.00;1.10;;;34.70;99.90;;;;;;5025561;28;20500;-27
2022/09/05 11:40:11;;;;;;;2.55;1.10;;;34.60;99.90;;;;;;5036574;28;20049;-28
2022/09/05 11:43:12;;;;;;;2.38;1.40;;;34.80;99.90;;;;;;5036080;28;20045;-28
2022/09/05 11:46:00;;;;;;;3.05;1.10;;;34.70;99.90;;;;;;5035805;28;20049;-28
2022/09/05 11:48:32;;;;;;;6.00;1.70;;;34.20;99.90;;;;;;5035304;28;20054;-28
2022/09/05 11:51:28;;;;;;;4.40;1.67;;;33.50;99.90;;;;;;5035499;28;20081;-28
2022/09/05 11:54:16;;;;;;;6.13;1.60;;;33.70;99.90;;;;;;5036276;28;20045;-28
2022/09/05 11:56:48;;;;;;;2.88;1.38;;;33.60;99.90;;;;;;5035566;28;20132;-28
2022/09/05 11:59:42;;;;;;;2.05;1.42;;;33.50;99.90;;;;;;5035661;28;20060;-28
2022/09/05 12:02:25;;;;;;;3.20;1.88;;;33.60;99.90;;;;;;5035228;28;20041;-28
2022/09/05 12:05:48;;;;;;;2.47;1.52;;;33.80;99.90;;;;;;5034993;28;20562;-28
2022/09/05 12:08:34;;;;;;;6.57;1.55;;;34.00;99.90;;;;;;5026842;28;20461;-28
2022/09/05 12:11:36;;;;;;;3.15;1.30;;;34.60;99.90;;;;;;5034053;28;20050;-28
2022/09/05 12:14:26;;;;;;;2.05;1.30;;;34.80;99.90;;;;;;5036206;28;20049;-28
2022/09/05 12:17:03;;;;;;;2.05;1.13;;;35.00;99.90;;;;;;5035586;28;20395;-27
2022/09/05 12:19:37;;;;;;;2.70;1.23;;;34.50;99.90;;;;;;5034962;28;20049;-28
2022/09/05 12:22:32;;;;;;;6.63;1.75;;;34.20;99.90;;;;;;5034741;28;20087;-27
2022/09/05 12:25:13;;;;;;;2.70;1.30;;;34.00;99.90;;;;;;5035686;28;20045;-28
2022/09/05 12:27:46;;;;;;;4.35;1.05;;;34.00;99.90;;;;;;5034797;28;20110;-28
2022/09/05 12:30:21;;;;;;;3.60;1.45;;;34.30;99.90;;;;;;5035317;28;20052;-28
2022/09/05 12:32:52;;;;;;;5.05;1.73;;;34.40;99.90;;;;;;5034975;28;20041;-28
2022/09/05 12:35:38;;;;;;;6.28;1.30;;;34.50;99.90;;;;;;5033454;28;20056;-28
2022/09/05 12:38:22;;;;;;;1.50;1.13;;;34.40;99.90;;;;;;5035155;28;20041;-27
2022/09/05 12:41:03;;;;;;;3.30;1.70;;;34.30;99.90;;;;;;5035137;28;20136;-28
2022/09/05 12:43:30;;;;;;;4.72;1.63;;;33.90;99.90;;;;;;5034416;28;20056;-28
2022/09/05 12:46:16;;;;;;;4.95;1.70;;;33.40;99.90;;;;;;5034452;28;20458;-28
2022/09/05 12:48:55;;;;;;;2.00;1.65;;;33.40;99.90;;;;;;5034030;28;20128;-28
2022/09/05 12:51:23;;;;;;;2.42;1.30;;;33.70;99.90;;;;;;5033196;28;20038;-28
2022/09/05 12:53:51;;;;;;;6.07;1.60;;;34.00;99.90;;;;;;5034287;28;20053;-28
2022/09/05 12:56:40;;;;;;;3.65;1.73;;;34.00;99.90;;;;;;5034263;28;20082;-28
2022/09/05 12:59:15;;;;;;;3.35;1.70;;;34.10;99.90;;;;;;5016805;28;20053;-28
2022/09/05 13:01:42;;;;;;;4.88;1.35;;;34.40;99.90;;;;;;5033685;28;20081;-29
2022/09/05 13:04:21;;;;;;;2.83;1.30;;;34.50;99.90;;;;;;5034097;28;20045;-28
2022/09/05 13:07:09;;;;;;;5.78;1.85;;;34.60;99.90;;;;;;5034078;28;20071;-28
2022/09/05 13:09:40;;;;;;;4.10;1.58;;;34.70;99.90;;;;;;5023291;28;20058;-28
2022/09/05 13:12:12;;;;;;;5.63;1.53;;;34.70;99.90;;;;;;5034060;28;20563;-28
2022/09/05 13:15:06;;;;;;;4.22;1.50;;;35.00;99.90;;;;;;5033987;28;20288;-28
2022/09/05 13:17:40;;;;;;;1.80;1.42;;;35.50;99.90;;;;;;5033985;28;20045;-29
2022/09/05 13:20:43;;;;;;;3.05;1.60;;;35.10;99.90;;;;;;5034490;28;20045;-28
2022/09/05 13:23:12;;;;;;;6.55;1.42;;;34.50;99.90;;;;;;5033354;28;20515;-28
2022/09/05 13:25:42;;;;;;;7.22;1.67;;;33.70;99.90;;;;;;5033585;28;20411;-28
2022/09/05 13:28:12;;;;;;;4.55;1.73;;;33.30;99.90;;;;;;5034379;28;20049;-28
2022/09/05 13:30:59;;;;;;;4.43;1.80;;;32.70;99.90;;;;;;5033734;28;20064;-28
2022/09/05 13:33:36;;;;;;;3.60;1.60;;;32.30;99.90;;;;;;5034607;28;20045;-28
2022/09/05 13:36:07;;;;;;;10.25;2.30;;;31.60;99.90;;;;;;5032533;28;20430;-28
2022/09/05 13:38:57;;;;;;;3.87;1.60;;;31.10;99.90;;;;;;5033573;28;20049;-28
2022/09/05 13:41:29;;;;;;;4.28;1.60;;;31.00;99.90;;;;;;5032622;28;20057;-28
2022/09/05 13:43:58;;;;;;;9.88;1.90;;;30.80;99.90;;;;;;5034440;28;20446;-28
2022/09/05 13:46:41;;;;;;;5.90;1.63;;;30.80;99.90;;;;;;5034173;28;20100;-28
2022/09/05 13:49:35;;;;;;;6.13;1.58;;;31.20;99.90;;;;;;5034206;28;20045;-27
2022/09/05 13:52:04;;;;;;;6.22;1.95;;;32.00;99.90;;;;;;5030961;28;20485;-28
2022/09/05 13:54:41;;;;;;;5.00;1.80;;;32.40;99.90;;;;;;5032569;28;20053;-28
2022/09/05 13:57:19;;;;;;;11.50;1.80;;;32.40;99.90;;;;;;5034060;28;20049;-28
2022/09/05 14:00:12;;;;;;;1.98;1.50;;;32.20;99.90;;;;;;5034388;28;20099;-28
2022/09/05 14:02:58;;;;;;;3.53;1.20;;;32.20;99.90;;;;;;5033494;28;20437;-27
2022/09/05 14:06:01;;;;;;;5.68;1.50;;;32.00;99.90;;;;;;5033480;28;20045;-27
2022/09/05 14:08:45;;;;;;;2.63;1.50;;;32.20;99.90;;;;;;5033424;28;20533;-27